sensor_id;sensor_type;location;lat;lon;timestamp;temperature;humidity
72936;DHT22;61085;48.804;9.228;2022-08-19T00:00:19;23.00;57.60
72936;DHT22;61085;48.804;9.228;2022-08-19T00:03:05;23.10;57.50
72936;DHT22;61085;48.804;9.228;2022-08-19T00:05:52;23.20;57.30
72936;DHT22;61085;48.804;9.228;2022-08-19T00:08:38;23.20;57.10
72936;DHT22;61085;48.804;9.228;2022-08-19T00:11:24;23.10;57.20
72936;DHT22;61085;48.804;9.228;2022-08-19T00:14:14;23.20;57.30
72936;DHT22;61085;48.804;9.228;2022-08-19T00:17:01;23.10;57.30
72936;DHT22;61085;48.804;9.228;2022-08-19T00:19:48;23.10;57.50
72936;DHT22;61085;48.804;9.228;2022-08-19T00:22:34;23.00;57.80
72936;DHT22;61085;48.804;9.228;2022-08-19T00:25:20;23.00;57.80
72936;DHT22;61085;48.804;9.228;2022-08-19T00:28:06;23.20;57.60
72936;DHT22;61085;48.804;9.228;2022-08-19T00:30:52;23.10;57.70
72936;DHT22;61085;48.804;9.228;2022-08-19T00:33:38;22.90;58.10
72936;DHT22;61085;48.804;9.228;2022-08-19T00:36:25;23.10;58.00
72936;DHT22;61085;48.804;9.228;2022-08-19T00:39:12;23.10;58.20
72936;DHT22;61085;48.804;9.228;2022-08-19T00:41:58;22.90;57.90
72936;DHT22;61085;48.804;9.228;2022-08-19T00:44:44;23.00;58.00
72936;DHT22;61085;48.804;9.228;2022-08-19T00:47:30;22.90;58.20
72936;DHT22;61085;48.804;9.228;2022-08-19T00:50:18;22.80;58.20
72936;DHT22;61085;48.804;9.228;2022-08-19T00:53:04;22.80;58.40
72936;DHT22;61085;48.804;9.228;2022-08-19T00:55:53;22.80;58.60
72936;DHT22;61085;48.804;9.228;2022-08-19T00:58:40;22.70;58.70
72936;DHT22;61085;48.804;9.228;2022-08-19T01:01:26;22.70;58.80
72936;DHT22;61085;48.804;9.228;2022-08-19T01:04:12;22.70;58.90
72936;DHT22;61085;48.804;9.228;2022-08-19T01:06:59;22.80;58.80
72936;DHT22;61085;48.804;9.228;2022-08-19T01:09:46;22.80;58.80
72936;DHT22;61085;48.804;9.228;2022-08-19T01:12:33;22.80;58.90
72936;DHT22;61085;48.804;9.228;2022-08-19T01:15:23;22.80;58.50
72936;DHT22;61085;48.804;9.228;2022-08-19T01:18:13;22.80;58.40
72936;DHT22;61085;48.804;9.228;2022-08-19T01:21:02;22.80;58.40
72936;DHT22;61085;48.804;9.228;2022-08-19T01:23:51;22.80;58.70
72936;DHT22;61085;48.804;9.228;2022-08-19T01:26:42;22.90;58.30
72936;DHT22;61085;48.804;9.228;2022-08-19T01:29:29;22.80;58.30
72936;DHT22;61085;48.804;9.228;2022-08-19T01:32:16;22.90;58.50
72936;DHT22;61085;48.804;9.228;2022-08-19T01:35:04;22.80;58.60
72936;DHT22;61085;48.804;9.228;2022-08-19T01:37:56;22.80;58.70
72936;DHT22;61085;48.804;9.228;2022-08-19T01:40:42;22.50;58.80
72936;DHT22;61085;48.804;9.228;2022-08-19T01:43:28;22.60;58.80
72936;DHT22;61085;48.804;9.228;2022-08-19T01:46:14;22.70;58.90
72936;DHT22;61085;48.804;9.228;2022-08-19T01:49:01;22.60;58.90
72936;DHT22;61085;48.804;9.228;2022-08-19T01:51:48;22.70;58.80
72936;DHT22;61085;48.804;9.228;2022-08-19T01:54:34;22.70;58.90
72936;DHT22;61085;48.804;9.228;2022-08-19T01:57:20;22.70;59.10
72936;DHT22;61085;48.804;9.228;2022-08-19T02:00:10;22.60;59.20
72936;DHT22;61085;48.804;9.228;2022-08-19T02:02:56;22.60;59.00
72936;DHT22;61085;48.804;9.228;2022-08-19T02:05:43;22.70;59.10
72936;DHT22;61085;48.804;9.228;2022-08-19T02:08:30;22.70;59.30
72936;DHT22;61085;48.804;9.228;2022-08-19T02:11:36;22.80;59.00
72936;DHT22;61085;48.804;9.228;2022-08-19T02:14:23;22.70;59.10
72936;DHT22;61085;48.804;9.228;2022-08-19T02:17:09;22.80;59.00
72936;DHT22;61085;48.804;9.228;2022-08-19T02:19:56;22.70;59.20
72936;DHT22;61085;48.804;9.228;2022-08-19T02:22:42;22.60;59.40
72936;DHT22;61085;48.804;9.228;2022-08-19T02:25:28;22.60;59.50
72936;DHT22;61085;48.804;9.228;2022-08-19T02:28:15;22.50;59.70
72936;DHT22;61085;48.804;9.228;2022-08-19T02:31:01;22.50;59.70
72936;DHT22;61085;48.804;9.228;2022-08-19T02:33:48;22.50;59.90
72936;DHT22;61085;48.804;9.228;2022-08-19T02:36:34;22.50;60.50
72936;DHT22;61085;48.804;9.228;2022-08-19T02:39:20;22.50;60.10
72936;DHT22;61085;48.804;9.228;2022-08-19T02:42:06;22.50;60.10
72936;DHT22;61085;48.804;9.228;2022-08-19T02:44:52;22.50;60.40
72936;DHT22;61085;48.804;9.228;2022-08-19T02:47:41;22.50;60.50
72936;DHT22;61085;48.804;9.228;2022-08-19T02:50:27;22.50;60.50
72936;DHT22;61085;48.804;9.228;2022-08-19T02:53:13;22.30;60.80
72936;DHT22;61085;48.804;9.228;2022-08-19T02:55:59;22.40;60.40
72936;DHT22;61085;48.804;9.228;2022-08-19T02:58:46;22.30;60.60
72936;DHT22;61085;48.804;9.228;2022-08-19T03:01:34;22.30;61.00
72936;DHT22;61085;48.804;9.228;2022-08-19T03:04:20;22.20;61.80
72936;DHT22;61085;48.804;9.228;2022-08-19T03:07:06;22.20;62.30
72936;DHT22;61085;48.804;9.228;2022-08-19T03:09:52;22.20;62.40
72936;DHT22;61085;48.804;9.228;2022-08-19T03:12:39;22.20;62.80
72936;DHT22;61085;48.804;9.228;2022-08-19T03:15:25;22.20;63.20
72936;DHT22;61085;48.804;9.228;2022-08-19T03:18:12;22.00;63.40
72936;DHT22;61085;48.804;9.228;2022-08-19T03:20:59;22.10;63.30
72936;DHT22;61085;48.804;9.228;2022-08-19T03:23:45;22.10;63.00
72936;DHT22;61085;48.804;9.228;2022-08-19T03:26:31;21.90;63.40
72936;DHT22;61085;48.804;9.228;2022-08-19T03:29:18;22.00;63.10
72936;DHT22;61085;48.804;9.228;2022-08-19T03:32:05;22.10;62.50
72936;DHT22;61085;48.804;9.228;2022-08-19T03:34:51;22.10;62.40
72936;DHT22;61085;48.804;9.228;2022-08-19T03:37:38;22.00;62.50
72936;DHT22;61085;48.804;9.228;2022-08-19T03:40:24;22.20;62.10
72936;DHT22;61085;48.804;9.228;2022-08-19T03:43:10;22.10;62.30
72936;DHT22;61085;48.804;9.228;2022-08-19T03:46:01;22.00;62.30
72936;DHT22;61085;48.804;9.228;2022-08-19T03:48:50;22.00;62.40
72936;DHT22;61085;48.804;9.228;2022-08-19T03:51:39;22.10;62.20
72936;DHT22;61085;48.804;9.228;2022-08-19T03:54:26;22.00;62.60
72936;DHT22;61085;48.804;9.228;2022-08-19T03:57:13;22.00;62.30
72936;DHT22;61085;48.804;9.228;2022-08-19T03:59:59;22.00;62.30
72936;DHT22;61085;48.804;9.228;2022-08-19T04:02:45;22.00;62.40
72936;DHT22;61085;48.804;9.228;2022-08-19T04:05:31;22.00;62.50
72936;DHT22;61085;48.804;9.228;2022-08-19T04:08:17;21.90;62.70
72936;DHT22;61085;48.804;9.228;2022-08-19T04:11:10;21.80;63.90
72936;DHT22;61085;48.804;9.228;2022-08-19T04:13:57;21.80;63.20
72936;DHT22;61085;48.804;9.228;2022-08-19T04:16:43;21.80;63.40
72936;DHT22;61085;48.804;9.228;2022-08-19T04:19:30;21.80;63.20
72936;DHT22;61085;48.804;9.228;2022-08-19T04:22:16;21.80;63.20
72936;DHT22;61085;48.804;9.228;2022-08-19T04:25:04;21.90;63.20
72936;DHT22;61085;48.804;9.228;2022-08-19T04:27:50;21.80;63.30
72936;DHT22;61085;48.804;9.228;2022-08-19T04:30:44;21.80;63.30
72936;DHT22;61085;48.804;9.228;2022-08-19T04:33:30;21.70;63.30
72936;DHT22;61085;48.804;9.228;2022-08-19T04:36:18;21.80;63.20
72936;DHT22;61085;48.804;9.228;2022-08-19T04:39:09;21.80;62.90
72936;DHT22;61085;48.804;9.228;2022-08-19T04:41:55;21.80;63.20
72936;DHT22;61085;48.804;9.228;2022-08-19T04:45:00;21.90;62.90
72936;DHT22;61085;48.804;9.228;2022-08-19T04:47:46;21.90;62.70
72936;DHT22;61085;48.804;9.228;2022-08-19T04:50:32;22.00;62.60
72936;DHT22;61085;48.804;9.228;2022-08-19T04:53:18;21.90;62.50
72936;DHT22;61085;48.804;9.228;2022-08-19T04:56:14;21.90;62.60
72936;DHT22;61085;48.804;9.228;2022-08-19T04:59:00;21.90;62.90
72936;DHT22;61085;48.804;9.228;2022-08-19T05:01:49;21.90;62.90
72936;DHT22;61085;48.804;9.228;2022-08-19T05:04:36;21.90;62.80
72936;DHT22;61085;48.804;9.228;2022-08-19T05:07:24;22.10;62.90
72936;DHT22;61085;48.804;9.228;2022-08-19T05:10:10;21.90;62.80
72936;DHT22;61085;48.804;9.228;2022-08-19T05:12:57;21.90;62.80
72936;DHT22;61085;48.804;9.228;2022-08-19T05:15:43;21.90;62.70
72936;DHT22;61085;48.804;9.228;2022-08-19T05:18:29;21.90;62.80
72936;DHT22;61085;48.804;9.228;2022-08-19T05:21:34;22.10;62.60
72936;DHT22;61085;48.804;9.228;2022-08-19T05:24:39;22.00;62.50
72936;DHT22;61085;48.804;9.228;2022-08-19T05:27:25;22.00;63.10
72936;DHT22;61085;48.804;9.228;2022-08-19T05:30:12;22.10;62.50
72936;DHT22;61085;48.804;9.228;2022-08-19T05:32:58;22.10;62.40
72936;DHT22;61085;48.804;9.228;2022-08-19T05:35:44;22.10;62.10
72936;DHT22;61085;48.804;9.228;2022-08-19T05:38:31;22.20;62.00
72936;DHT22;61085;48.804;9.228;2022-08-19T05:41:17;22.20;62.30
72936;DHT22;61085;48.804;9.228;2022-08-19T05:44:05;22.20;62.20
72936;DHT22;61085;48.804;9.228;2022-08-19T05:46:54;22.20;61.60
72936;DHT22;61085;48.804;9.228;2022-08-19T05:49:41;22.20;61.70
72936;DHT22;61085;48.804;9.228;2022-08-19T05:52:27;22.10;62.10
72936;DHT22;61085;48.804;9.228;2022-08-19T05:55:14;22.10;62.10
72936;DHT22;61085;48.804;9.228;2022-08-19T05:58:00;22.10;62.20
72936;DHT22;61085;48.804;9.228;2022-08-19T06:00:47;22.10;62.00
72936;DHT22;61085;48.804;9.228;2022-08-19T06:03:33;22.10;62.30
72936;DHT22;61085;48.804;9.228;2022-08-19T06:06:20;22.10;62.60
72936;DHT22;61085;48.804;9.228;2022-08-19T06:09:07;21.90;62.70
72936;DHT22;61085;48.804;9.228;2022-08-19T06:11:56;22.00;62.60
72936;DHT22;61085;48.804;9.228;2022-08-19T06:14:50;22.00;62.80
72936;DHT22;61085;48.804;9.228;2022-08-19T06:17:36;22.10;62.60
72936;DHT22;61085;48.804;9.228;2022-08-19T06:20:25;22.10;62.90
72936;DHT22;61085;48.804;9.228;2022-08-19T06:23:11;22.10;63.00
72936;DHT22;61085;48.804;9.228;2022-08-19T06:25:57;21.90;64.00
72936;DHT22;61085;48.804;9.228;2022-08-19T06:28:43;21.90;64.60
72936;DHT22;61085;48.804;9.228;2022-08-19T06:31:33;21.90;64.50
72936;DHT22;61085;48.804;9.228;2022-08-19T06:34:20;21.90;64.80
72936;DHT22;61085;48.804;9.228;2022-08-19T06:37:06;21.90;65.20
72936;DHT22;61085;48.804;9.228;2022-08-19T06:39:52;21.90;66.10
72936;DHT22;61085;48.804;9.228;2022-08-19T06:42:38;21.80;65.20
72936;DHT22;61085;48.804;9.228;2022-08-19T06:45:25;21.80;66.00
72936;DHT22;61085;48.804;9.228;2022-08-19T06:48:11;21.90;66.10
72936;DHT22;61085;48.804;9.228;2022-08-19T06:50:57;21.90;65.70
72936;DHT22;61085;48.804;9.228;2022-08-19T06:53:47;21.80;65.80
72936;DHT22;61085;48.804;9.228;2022-08-19T06:56:33;21.80;65.80
72936;DHT22;61085;48.804;9.228;2022-08-19T06:59:22;21.70;66.20
72936;DHT22;61085;48.804;9.228;2022-08-19T07:02:12;21.90;65.80
72936;DHT22;61085;48.804;9.228;2022-08-19T07:04:58;21.70;65.40
72936;DHT22;61085;48.804;9.228;2022-08-19T07:07:46;21.70;65.80
72936;DHT22;61085;48.804;9.228;2022-08-19T07:10:32;21.80;66.30
72936;DHT22;61085;48.804;9.228;2022-08-19T07:13:21;21.90;65.60
72936;DHT22;61085;48.804;9.228;2022-08-19T07:16:08;21.80;65.80
72936;DHT22;61085;48.804;9.228;2022-08-19T07:18:54;21.90;66.00
72936;DHT22;61085;48.804;9.228;2022-08-19T07:21:41;21.80;65.20
72936;DHT22;61085;48.804;9.228;2022-08-19T07:24:28;22.00;64.90
72936;DHT22;61085;48.804;9.228;2022-08-19T07:27:14;22.10;65.10
72936;DHT22;61085;48.804;9.228;2022-08-19T07:30:00;21.90;64.60
72936;DHT22;61085;48.804;9.228;2022-08-19T07:32:46;22.00;64.80
72936;DHT22;61085;48.804;9.228;2022-08-19T07:35:32;21.90;64.60
72936;DHT22;61085;48.804;9.228;2022-08-19T07:38:19;22.00;64.30
72936;DHT22;61085;48.804;9.228;2022-08-19T07:41:05;22.00;64.20
72936;DHT22;61085;48.804;9.228;2022-08-19T07:43:52;22.10;63.70
72936;DHT22;61085;48.804;9.228;2022-08-19T07:46:40;22.00;64.00
72936;DHT22;61085;48.804;9.228;2022-08-19T07:49:27;21.90;64.30
72936;DHT22;61085;48.804;9.228;2022-08-19T07:52:12;21.80;64.60
72936;DHT22;61085;48.804;9.228;2022-08-19T07:54:58;21.80;64.70
72936;DHT22;61085;48.804;9.228;2022-08-19T07:57:45;21.80;64.60
72936;DHT22;61085;48.804;9.228;2022-08-19T08:00:31;21.80;65.20
72936;DHT22;61085;48.804;9.228;2022-08-19T08:03:19;21.70;65.30
72936;DHT22;61085;48.804;9.228;2022-08-19T08:06:06;21.80;65.40
72936;DHT22;61085;48.804;9.228;2022-08-19T08:09:11;21.90;66.00
72936;DHT22;61085;48.804;9.228;2022-08-19T08:12:02;21.90;65.70
72936;DHT22;61085;48.804;9.228;2022-08-19T08:14:52;21.90;66.20
72936;DHT22;61085;48.804;9.228;2022-08-19T08:17:39;22.00;66.90
72936;DHT22;61085;48.804;9.228;2022-08-19T08:20:25;21.80;67.30
72936;DHT22;61085;48.804;9.228;2022-08-19T08:23:11;21.70;68.80
72936;DHT22;61085;48.804;9.228;2022-08-19T08:26:10;21.70;69.00
72936;DHT22;61085;48.804;9.228;2022-08-19T08:28:58;21.60;68.40
72936;DHT22;61085;48.804;9.228;2022-08-19T08:31:44;21.50;69.00
72936;DHT22;61085;48.804;9.228;2022-08-19T08:34:31;21.60;69.80
72936;DHT22;61085;48.804;9.228;2022-08-19T08:37:16;21.60;70.00
72936;DHT22;61085;48.804;9.228;2022-08-19T08:40:22;21.60;69.90
72936;DHT22;61085;48.804;9.228;2022-08-19T08:46:09;21.90;68.70
72936;DHT22;61085;48.804;9.228;2022-08-19T08:51:59;22.30;68.50
72936;DHT22;61085;48.804;9.228;2022-08-19T08:54:48;22.50;68.30
72936;DHT22;61085;48.804;9.228;2022-08-19T08:57:59;22.70;66.90
72936;DHT22;61085;48.804;9.228;2022-08-19T09:00:47;22.90;66.00
72936;DHT22;61085;48.804;9.228;2022-08-19T09:03:33;23.00;65.30
72936;DHT22;61085;48.804;9.228;2022-08-19T09:09:43;22.70;65.00
72936;DHT22;61085;48.804;9.228;2022-08-19T09:15:45;22.70;65.20
72936;DHT22;61085;48.804;9.228;2022-08-19T09:18:19;22.60;65.70
72936;DHT22;61085;48.804;9.228;2022-08-19T09:20:46;22.40;67.10
72936;DHT22;61085;48.804;9.228;2022-08-19T09:23:13;22.40;67.70
72936;DHT22;61085;48.804;9.228;2022-08-19T09:25:38;22.40;67.10
72936;DHT22;61085;48.804;9.228;2022-08-19T09:28:06;22.30;67.00
72936;DHT22;61085;48.804;9.228;2022-08-19T09:30:40;22.30;67.00
72936;DHT22;61085;48.804;9.228;2022-08-19T09:33:06;22.20;67.70
72936;DHT22;61085;48.804;9.228;2022-08-19T09:35:32;22.10;67.20
72936;DHT22;61085;48.804;9.228;2022-08-19T09:37:59;22.20;68.10
72936;DHT22;61085;48.804;9.228;2022-08-19T09:40:26;22.10;68.30
72936;DHT22;61085;48.804;9.228;2022-08-19T09:42:52;22.20;69.00
72936;DHT22;61085;48.804;9.228;2022-08-19T09:45:20;22.10;68.80
72936;DHT22;61085;48.804;9.228;2022-08-19T09:47:47;22.20;68.90
72936;DHT22;61085;48.804;9.228;2022-08-19T09:50:14;22.20;69.30
72936;DHT22;61085;48.804;9.228;2022-08-19T09:52:39;22.10;69.50
72936;DHT22;61085;48.804;9.228;2022-08-19T09:55:09;22.10;69.50
72936;DHT22;61085;48.804;9.228;2022-08-19T09:57:35;22.10;68.40
72936;DHT22;61085;48.804;9.228;2022-08-19T10:00:04;22.10;69.00
72936;DHT22;61085;48.804;9.228;2022-08-19T10:02:30;22.10;69.50
72936;DHT22;61085;48.804;9.228;2022-08-19T10:04:56;22.30;69.30
72936;DHT22;61085;48.804;9.228;2022-08-19T10:07:40;22.20;69.40
72936;DHT22;61085;48.804;9.228;2022-08-19T10:10:06;22.10;69.10
72936;DHT22;61085;48.804;9.228;2022-08-19T10:12:33;22.00;68.60
72936;DHT22;61085;48.804;9.228;2022-08-19T10:14:59;22.00;70.00
72936;DHT22;61085;48.804;9.228;2022-08-19T10:17:25;22.00;70.00
72936;DHT22;61085;48.804;9.228;2022-08-19T10:19:51;22.00;70.60
72936;DHT22;61085;48.804;9.228;2022-08-19T10:22:18;22.00;71.40
72936;DHT22;61085;48.804;9.228;2022-08-19T10:24:45;22.10;71.80
72936;DHT22;61085;48.804;9.228;2022-08-19T10:27:11;22.10;70.90
72936;DHT22;61085;48.804;9.228;2022-08-19T10:29:38;22.20;69.40
72936;DHT22;61085;48.804;9.228;2022-08-19T10:32:06;22.20;70.30
72936;DHT22;61085;48.804;9.228;2022-08-19T10:34:33;22.20;70.40
72936;DHT22;61085;48.804;9.228;2022-08-19T10:37:00;22.20;70.60
72936;DHT22;61085;48.804;9.228;2022-08-19T10:39:26;22.20;70.40
72936;DHT22;61085;48.804;9.228;2022-08-19T10:41:54;22.40;70.00
72936;DHT22;61085;48.804;9.228;2022-08-19T10:44:21;22.40;69.40
72936;DHT22;61085;48.804;9.228;2022-08-19T10:46:48;22.40;69.20
72936;DHT22;61085;48.804;9.228;2022-08-19T10:49:14;22.30;69.70
72936;DHT22;61085;48.804;9.228;2022-08-19T10:51:40;22.40;69.90
72936;DHT22;61085;48.804;9.228;2022-08-19T10:54:27;22.40;70.20
72936;DHT22;61085;48.804;9.228;2022-08-19T10:57:17;22.50;69.60
72936;DHT22;61085;48.804;9.228;2022-08-19T10:59:55;22.40;69.20
72936;DHT22;61085;48.804;9.228;2022-08-19T11:02:30;22.40;68.20
72936;DHT22;61085;48.804;9.228;2022-08-19T11:05:01;22.40;67.20
72936;DHT22;61085;48.804;9.228;2022-08-19T11:07:27;22.50;67.70
72936;DHT22;61085;48.804;9.228;2022-08-19T11:09:52;22.50;66.60
72936;DHT22;61085;48.804;9.228;2022-08-19T11:12:18;22.50;65.20
72936;DHT22;61085;48.804;9.228;2022-08-19T11:14:44;22.30;66.10
72936;DHT22;61085;48.804;9.228;2022-08-19T11:17:10;22.60;66.20
72936;DHT22;61085;48.804;9.228;2022-08-19T11:19:39;22.60;65.60
72936;DHT22;61085;48.804;9.228;2022-08-19T11:22:08;22.70;66.00
72936;DHT22;61085;48.804;9.228;2022-08-19T11:24:35;22.80;64.50
72936;DHT22;61085;48.804;9.228;2022-08-19T11:27:05;22.80;63.30
72936;DHT22;61085;48.804;9.228;2022-08-19T11:29:32;22.80;64.00
72936;DHT22;61085;48.804;9.228;2022-08-19T11:32:00;22.90;63.50
72936;DHT22;61085;48.804;9.228;2022-08-19T11:34:27;23.00;63.40
72936;DHT22;61085;48.804;9.228;2022-08-19T11:36:55;23.00;62.30
72936;DHT22;61085;48.804;9.228;2022-08-19T11:39:26;23.10;60.80
72936;DHT22;61085;48.804;9.228;2022-08-19T11:41:52;23.10;61.60
72936;DHT22;61085;48.804;9.228;2022-08-19T11:44:18;23.10;61.90
72936;DHT22;61085;48.804;9.228;2022-08-19T11:46:44;23.20;62.30
72936;DHT22;61085;48.804;9.228;2022-08-19T11:49:13;23.30;60.60
72936;DHT22;61085;48.804;9.228;2022-08-19T11:51:39;23.30;60.40
72936;DHT22;61085;48.804;9.228;2022-08-19T11:54:07;23.20;68.00
72936;DHT22;61085;48.804;9.228;2022-08-19T11:56:33;22.60;71.60
72936;DHT22;61085;48.804;9.228;2022-08-19T11:59:00;22.50;73.00
72936;DHT22;61085;48.804;9.228;2022-08-19T12:01:27;22.40;74.70
72936;DHT22;61085;48.804;9.228;2022-08-19T12:03:54;22.30;75.10
72936;DHT22;61085;48.804;9.228;2022-08-19T12:06:31;22.20;76.20
72936;DHT22;61085;48.804;9.228;2022-08-19T12:09:00;22.20;76.70
72936;DHT22;61085;48.804;9.228;2022-08-19T12:11:26;22.20;75.70
72936;DHT22;61085;48.804;9.228;2022-08-19T12:13:52;22.30;76.40
72936;DHT22;61085;48.804;9.228;2022-08-19T12:16:23;22.20;76.40
72936;DHT22;61085;48.804;9.228;2022-08-19T12:18:49;22.20;76.30
72936;DHT22;61085;48.804;9.228;2022-08-19T12:21:18;22.20;76.30
72936;DHT22;61085;48.804;9.228;2022-08-19T12:23:48;22.20;76.20
72936;DHT22;61085;48.804;9.228;2022-08-19T12:26:14;22.40;75.80
72936;DHT22;61085;48.804;9.228;2022-08-19T12:28:39;22.40;75.10
72936;DHT22;61085;48.804;9.228;2022-08-19T12:31:07;22.40;75.10
72936;DHT22;61085;48.804;9.228;2022-08-19T12:33:33;22.40;74.90
72936;DHT22;61085;48.804;9.228;2022-08-19T12:36:05;22.50;74.40
72936;DHT22;61085;48.804;9.228;2022-08-19T12:38:32;22.40;74.70
72936;DHT22;61085;48.804;9.228;2022-08-19T12:40:59;22.50;74.90
72936;DHT22;61085;48.804;9.228;2022-08-19T12:43:25;22.60;75.20
72936;DHT22;61085;48.804;9.228;2022-08-19T12:45:51;22.60;75.40
72936;DHT22;61085;48.804;9.228;2022-08-19T12:48:17;22.60;75.80
72936;DHT22;61085;48.804;9.228;2022-08-19T12:50:44;22.60;76.00
72936;DHT22;61085;48.804;9.228;2022-08-19T12:53:11;22.50;76.10
72936;DHT22;61085;48.804;9.228;2022-08-19T12:55:37;22.50;76.10
72936;DHT22;61085;48.804;9.228;2022-08-19T12:58:03;22.50;76.10
72936;DHT22;61085;48.804;9.228;2022-08-19T13:00:29;22.50;76.10
72936;DHT22;61085;48.804;9.228;2022-08-19T13:02:55;22.40;76.40
72936;DHT22;61085;48.804;9.228;2022-08-19T13:05:25;22.30;77.00
72936;DHT22;61085;48.804;9.228;2022-08-19T13:07:52;22.20;77.50
72936;DHT22;61085;48.804;9.228;2022-08-19T13:10:22;22.20;77.50
72936;DHT22;61085;48.804;9.228;2022-08-19T13:12:50;22.20;77.50
72936;DHT22;61085;48.804;9.228;2022-08-19T13:15:17;22.20;77.80
72936;DHT22;61085;48.804;9.228;2022-08-19T13:17:49;22.10;77.50
72936;DHT22;61085;48.804;9.228;2022-08-19T13:20:17;22.20;77.60
72936;DHT22;61085;48.804;9.228;2022-08-19T13:22:45;22.10;77.60
72936;DHT22;61085;48.804;9.228;2022-08-19T13:25:12;22.10;77.60
72936;DHT22;61085;48.804;9.228;2022-08-19T13:27:39;22.00;78.00
72936;DHT22;61085;48.804;9.228;2022-08-19T13:30:07;21.90;78.30
72936;DHT22;61085;48.804;9.228;2022-08-19T13:32:52;21.80;78.30
72936;DHT22;61085;48.804;9.228;2022-08-19T13:35:40;21.80;78.80
72936;DHT22;61085;48.804;9.228;2022-08-19T13:38:06;21.70;79.40
72936;DHT22;61085;48.804;9.228;2022-08-19T13:40:32;21.80;80.30
72936;DHT22;61085;48.804;9.228;2022-08-19T13:43:02;21.60;81.00
72936;DHT22;61085;48.804;9.228;2022-08-19T13:45:29;21.60;80.60
72936;DHT22;61085;48.804;9.228;2022-08-19T13:47:59;21.60;80.50
72936;DHT22;61085;48.804;9.228;2022-08-19T13:50:27;21.60;80.70
72936;DHT22;61085;48.804;9.228;2022-08-19T13:52:54;21.60;81.30
72936;DHT22;61085;48.804;9.228;2022-08-19T13:55:20;21.50;81.60
72936;DHT22;61085;48.804;9.228;2022-08-19T13:57:53;21.50;81.50
72936;DHT22;61085;48.804;9.228;2022-08-19T14:00:20;21.50;82.10
72936;DHT22;61085;48.804;9.228;2022-08-19T14:02:47;21.30;82.00
72936;DHT22;61085;48.804;9.228;2022-08-19T14:05:16;21.40;82.60
72936;DHT22;61085;48.804;9.228;2022-08-19T14:07:42;21.40;83.10
72936;DHT22;61085;48.804;9.228;2022-08-19T14:10:10;21.40;82.70
72936;DHT22;61085;48.804;9.228;2022-08-19T14:12:37;21.40;83.20
72936;DHT22;61085;48.804;9.228;2022-08-19T14:15:04;21.30;83.70
72936;DHT22;61085;48.804;9.228;2022-08-19T14:17:30;21.30;83.80
72936;DHT22;61085;48.804;9.228;2022-08-19T14:20:04;21.30;84.20
72936;DHT22;61085;48.804;9.228;2022-08-19T14:22:34;21.40;84.30
72936;DHT22;61085;48.804;9.228;2022-08-19T14:25:00;21.40;84.40
72936;DHT22;61085;48.804;9.228;2022-08-19T14:27:26;21.20;84.80
72936;DHT22;61085;48.804;9.228;2022-08-19T14:29:52;21.40;85.00
72936;DHT22;61085;48.804;9.228;2022-08-19T14:32:18;21.30;84.60
72936;DHT22;61085;48.804;9.228;2022-08-19T14:34:44;21.30;84.90
72936;DHT22;61085;48.804;9.228;2022-08-19T14:37:13;21.40;84.70
72936;DHT22;61085;48.804;9.228;2022-08-19T14:39:40;21.50;84.30
72936;DHT22;61085;48.804;9.228;2022-08-19T14:42:07;21.50;83.50
72936;DHT22;61085;48.804;9.228;2022-08-19T14:44:34;21.60;82.90
72936;DHT22;61085;48.804;9.228;2022-08-19T14:46:59;21.50;83.00
72936;DHT22;61085;48.804;9.228;2022-08-19T14:49:25;21.50;83.50
72936;DHT22;61085;48.804;9.228;2022-08-19T14:51:51;21.50;83.00
72936;DHT22;61085;48.804;9.228;2022-08-19T14:54:16;21.50;82.80
72936;DHT22;61085;48.804;9.228;2022-08-19T14:56:42;21.50;82.20
72936;DHT22;61085;48.804;9.228;2022-08-19T14:59:08;21.50;81.80
72936;DHT22;61085;48.804;9.228;2022-08-19T15:01:34;21.40;82.50
72936;DHT22;61085;48.804;9.228;2022-08-19T15:04:00;21.50;83.20
72936;DHT22;61085;48.804;9.228;2022-08-19T15:06:26;21.50;83.20
72936;DHT22;61085;48.804;9.228;2022-08-19T15:08:53;21.50;82.80
72936;DHT22;61085;48.804;9.228;2022-08-19T15:11:21;21.50;82.30
72936;DHT22;61085;48.804;9.228;2022-08-19T15:13:48;21.40;82.90
72936;DHT22;61085;48.804;9.228;2022-08-19T15:16:16;21.50;83.20
72936;DHT22;61085;48.804;9.228;2022-08-19T15:18:42;21.30;82.50
72936;DHT22;61085;48.804;9.228;2022-08-19T15:21:10;21.20;82.60
72936;DHT22;61085;48.804;9.228;2022-08-19T15:23:38;21.30;82.60
72936;DHT22;61085;48.804;9.228;2022-08-19T15:26:04;21.40;82.30
72936;DHT22;61085;48.804;9.228;2022-08-19T15:28:30;21.50;82.70
72936;DHT22;61085;48.804;9.228;2022-08-19T15:30:58;21.60;81.60
72936;DHT22;61085;48.804;9.228;2022-08-19T15:33:24;21.60;81.50
72936;DHT22;61085;48.804;9.228;2022-08-19T15:35:50;21.80;80.00
72936;DHT22;61085;48.804;9.228;2022-08-19T15:38:17;21.70;79.60
72936;DHT22;61085;48.804;9.228;2022-08-19T15:40:47;21.80;79.20
72936;DHT22;61085;48.804;9.228;2022-08-19T15:43:14;21.90;78.80
72936;DHT22;61085;48.804;9.228;2022-08-19T15:45:41;21.90;78.80
72936;DHT22;61085;48.804;9.228;2022-08-19T15:48:08;22.00;78.70
72936;DHT22;61085;48.804;9.228;2022-08-19T15:50:34;22.00;78.40
72936;DHT22;61085;48.804;9.228;2022-08-19T15:53:04;22.00;78.50
72936;DHT22;61085;48.804;9.228;2022-08-19T15:55:34;22.00;78.60
72936;DHT22;61085;48.804;9.228;2022-08-19T15:58:01;22.00;78.60
72936;DHT22;61085;48.804;9.228;2022-08-19T16:00:46;21.90;77.80
72936;DHT22;61085;48.804;9.228;2022-08-19T16:03:30;21.80;78.10
72936;DHT22;61085;48.804;9.228;2022-08-19T16:06:14;21.70;78.40
72936;DHT22;61085;48.804;9.228;2022-08-19T16:08:57;21.70;79.00
72936;DHT22;61085;48.804;9.228;2022-08-19T16:11:26;21.60;79.00
72936;DHT22;61085;48.804;9.228;2022-08-19T16:13:53;21.50;79.70
72936;DHT22;61085;48.804;9.228;2022-08-19T16:16:21;21.60;79.50
72936;DHT22;61085;48.804;9.228;2022-08-19T16:18:47;21.70;78.90
72936;DHT22;61085;48.804;9.228;2022-08-19T16:21:14;21.70;78.80
72936;DHT22;61085;48.804;9.228;2022-08-19T16:23:44;21.60;79.20
72936;DHT22;61085;48.804;9.228;2022-08-19T16:26:11;21.70;78.20
72936;DHT22;61085;48.804;9.228;2022-08-19T16:28:38;21.70;78.50
72936;DHT22;61085;48.804;9.228;2022-08-19T16:31:04;21.80;78.10
72936;DHT22;61085;48.804;9.228;2022-08-19T16:33:29;21.80;78.30
72936;DHT22;61085;48.804;9.228;2022-08-19T16:35:56;21.90;77.10
72936;DHT22;61085;48.804;9.228;2022-08-19T16:38:23;22.00;77.20
72936;DHT22;61085;48.804;9.228;2022-08-19T16:40:49;22.20;76.40
72936;DHT22;61085;48.804;9.228;2022-08-19T16:43:19;22.10;75.80
72936;DHT22;61085;48.804;9.228;2022-08-19T16:45:47;22.10;75.90
72936;DHT22;61085;48.804;9.228;2022-08-19T16:48:13;22.10;76.10
72936;DHT22;61085;48.804;9.228;2022-08-19T16:50:38;22.10;75.40